createdAt,value
2022-11-04T00:00:28.596Z,99877.20
2022-11-04T00:01:28.418Z,99876.89
2022-11-04T00:02:30.260Z,99873.47
2022-11-04T00:03:32.405Z,99875.02
2022-11-04T00:04:35.093Z,99874.13
2022-11-04T00:05:37.952Z,99869.66
2022-11-04T00:06:40.310Z,99873.95
2022-11-04T00:07:41.995Z,99874.73
2022-11-04T00:08:52.785Z,99865.17
2022-11-04T00:09:55.064Z,99869.47
2022-11-04T00:10:58.866Z,99866.26
2022-11-04T00:12:00.585Z,99871.59
2022-11-04T00:13:02.541Z,99867.16
2022-11-04T00:14:06.303Z,99873.39
2022-11-04T00:15:08.674Z,99873.39
2022-11-04T00:16:12.733Z,99868.31
2022-11-04T00:17:15.109Z,99868.31
2022-11-04T00:18:17.228Z,99869.17
2022-11-04T00:19:19.238Z,99862.28
2022-11-04T00:20:21.114Z,99859.51
2022-11-04T00:21:22.858Z,99863.00
2022-11-04T00:22:25.345Z,99868.31
2022-11-04T00:23:27.338Z,99868.31
2022-11-04T00:24:29.460Z,99863.25
2022-11-04T00:25:31.335Z,99863.36
2022-11-04T00:26:33.383Z,99858.05
2022-11-04T00:27:35.134Z,99855.53
2022-11-04T00:28:36.847Z,99854.73
2022-11-04T00:29:38.578Z,99853.21
2022-11-04T00:30:40.318Z,99856.95
2022-11-04T00:31:41.949Z,99856.95
2022-11-04T00:32:43.681Z,99858.64
2022-11-04T00:33:46.716Z,99858.23
2022-11-04T00:34:48.666Z,99849.45
2022-11-04T00:35:51.963Z,99853.48
2022-11-04T00:36:54.313Z,99845.55
2022-11-04T00:37:56.408Z,99839.91
2022-11-04T00:38:58.317Z,99842.79
2022-11-04T00:40:00.054Z,99846.16
2022-11-04T00:41:01.791Z,99846.16
2022-11-04T00:42:03.675Z,99844.14
2022-11-04T00:43:05.675Z,99842.95
2022-11-04T00:44:07.579Z,99842.53
2022-11-04T00:45:10.035Z,99845.06
2022-11-04T00:46:12.853Z,99849.05
2022-11-04T00:47:15.057Z,99843.47
2022-11-04T00:48:17.761Z,99849.45
2022-11-04T00:49:19.484Z,99845.03
2022-11-04T00:50:21.332Z,99844.86
2022-11-04T00:51:23.901Z,99834.80
2022-11-04T00:52:25.649Z,99834.80
2022-11-04T00:53:27.272Z,99845.97
2022-11-04T00:54:29.107Z,99838.02
2022-11-04T00:55:30.765Z,99840.30
2022-11-04T00:56:32.690Z,99839.22
2022-11-04T00:57:34.341Z,99835.72
2022-11-04T00:58:36.351Z,99832.08
2022-11-04T00:59:39.310Z,99838.73
2022-11-04T01:00:41.179Z,99836.85
2022-11-04T01:01:42.994Z,99837.57
2022-11-04T01:02:45.758Z,99841.87
2022-11-04T01:03:50.318Z,99836.48
2022-11-04T01:04:54.183Z,99842.38
2022-11-04T01:05:58.032Z,99845.70
2022-11-04T01:07:02.031Z,99841.22
2022-11-04T01:08:04.296Z,99844.61
2022-11-04T01:09:10.237Z,99838.44
2022-11-04T01:10:12.584Z,99847.86
2022-11-04T01:11:16.237Z,99833.05
2022-11-04T01:12:18.019Z,99833.84
2022-11-04T01:13:20.281Z,99831.28
2022-11-04T01:14:23.334Z,99825.14
2022-11-04T01:15:25.198Z,99838.97
2022-11-04T01:17:30.421Z,99821.49
2022-11-04T01:18:32.305Z,99826.80
2022-11-04T01:19:34.348Z,99826.80
2022-11-04T01:20:36.377Z,99831.09
2022-11-04T01:21:38.288Z,99832.94
2022-11-04T01:22:40.828Z,99830.34
2022-11-04T01:23:44.246Z,99832.87
2022-11-04T01:24:46.081Z,99828.38
2022-11-04T01:25:47.953Z,99831.77
2022-11-04T01:26:49.721Z,99832.61
2022-11-04T01:27:51.749Z,99826.69
2022-11-04T01:28:55.275Z,99823.11
2022-11-04T01:29:57.282Z,99827.48
2022-11-04T01:30:59.582Z,99826.69
2022-11-04T01:32:02.412Z,99830.20
2022-11-04T01:33:04.457Z,99835.39
2022-11-04T01:34:07.094Z,99818.82
2022-11-04T01:35:09.699Z,99828.23
2022-11-04T01:36:13.628Z,99824.73
2022-11-04T01:37:17.456Z,99823.72
2022-11-04T01:38:19.265Z,99830.72
2022-11-04T01:39:20.999Z,99825.00
2022-11-04T01:40:22.867Z,99826.58
2022-11-04T01:41:27.927Z,99824.62
2022-11-04T01:42:29.865Z,99823.75
2022-11-04T01:43:53.685Z,99823.19
2022-11-04T01:45:00.611Z,99823.19
2022-11-04T01:46:03.646Z,99820.59
2022-11-04T01:47:07.773Z,99819.22
2022-11-04T01:48:17.984Z,99827.86
2022-11-04T01:49:29.945Z,99819.59
2022-11-04T01:50:34.280Z,99826.42
2022-11-04T01:51:39.600Z,99819.27
2022-11-04T01:53:00.031Z,99827.86
2022-11-04T01:54:05.560Z,99827.00
2022-11-04T01:55:11.128Z,99825.16
2022-11-04T01:56:15.182Z,99824.08
2022-11-04T01:57:20.453Z,99829.64
2022-11-04T01:58:32.063Z,99826.39
2022-11-04T01:59:37.655Z,99828.73
2022-11-04T02:00:41.474Z,99826.48
2022-11-04T02:01:44.856Z,99832.27
2022-11-04T02:02:59.442Z,99835.09
2022-11-04T02:04:01.584Z,99824.83
2022-11-04T02:05:03.710Z,99818.69
2022-11-04T02:06:07.556Z,99822.61
2022-11-04T02:07:10.713Z,99823.04
2022-11-04T02:08:15.693Z,99833.65
2022-11-04T02:09:19.464Z,99828.13
2022-11-04T02:10:24.893Z,99824.53
2022-11-04T02:11:26.625Z,99826.56
2022-11-04T02:12:28.447Z,99831.39
2022-11-04T02:13:33.598Z,99821.18
2022-11-04T02:14:36.824Z,99822.14
2022-11-04T02:15:54.586Z,99823.94
2022-11-04T02:17:21.416Z,99826.49
2022-11-04T02:18:38.865Z,99825.37
2022-11-04T02:19:53.440Z,99827.01
2022-11-04T02:21:19.158Z,99825.41
2022-11-04T02:22:49.748Z,99821.08
2022-11-04T02:24:19.735Z,99820.34
2022-11-04T02:25:31.103Z,99829.31
2022-11-04T02:26:39.628Z,99825.53
2022-11-04T02:28:02.057Z,99820.81
2022-11-04T02:29:22.509Z,99824.41
2022-11-04T02:30:26.654Z,99818.95
2022-11-04T02:31:41.371Z,99824.87
2022-11-04T02:32:55.955Z,99823.34
2022-11-04T02:34:04.549Z,99828.83
2022-11-04T02:35:19.030Z,99819.34
2022-11-04T02:36:24.661Z,99821.64
2022-11-04T02:37:59.140Z,99815.39
2022-11-04T02:39:23.188Z,99817.41
2022-11-04T02:40:41.140Z,99816.63
2022-11-04T02:41:55.826Z,99821.56
2022-11-04T02:43:01.442Z,99818.66
2022-11-04T02:44:15.471Z,99814.58
2022-11-04T02:47:07.460Z,99817.87
2022-11-04T02:48:34.576Z,99816.63
2022-11-04T02:49:49.177Z,99816.16
2022-11-04T02:50:57.673Z,99823.38
2022-11-04T02:52:12.127Z,99814.62
2022-11-04T02:53:32.093Z,99812.89
2022-11-04T02:54:43.603Z,99803.37
2022-11-04T02:55:51.916Z,99813.56
2022-11-04T02:56:57.512Z,99813.24
2022-11-04T02:58:04.024Z,99813.38
2022-11-04T02:59:12.559Z,99808.28
2022-11-04T03:00:15.429Z,99809.84
2022-11-04T03:01:20.337Z,99804.12
2022-11-04T03:02:28.690Z,99806.03
2022-11-04T03:03:34.338Z,99803.37
2022-11-04T03:04:39.993Z,99808.28
2022-11-04T03:05:45.563Z,99797.68
2022-11-04T03:06:50.220Z,99801.30
2022-11-04T03:07:55.792Z,99802.13
2022-11-04T03:09:00.436Z,99804.05
2022-11-04T03:10:06.396Z,99804.88
2022-11-04T03:11:15.458Z,99801.40
2022-11-04T03:12:21.065Z,99802.87
2022-11-04T03:13:38.904Z,99794.86
2022-11-04T03:14:44.388Z,99802.31
2022-11-04T03:15:50.912Z,99801.81
2022-11-04T03:16:56.525Z,99803.44
2022-11-04T03:18:08.328Z,99801.08
2022-11-04T03:19:26.480Z,99807.83
2022-11-04T03:20:30.619Z,99809.52
2022-11-04T03:21:35.327Z,99804.01
2022-11-04T03:22:38.332Z,99806.77
2022-11-04T03:23:40.920Z,99806.77
2022-11-04T03:24:45.262Z,99804.40
2022-11-04T03:25:50.849Z,99813.88
2022-11-04T03:27:08.490Z,99814.71
2022-11-04T03:28:30.891Z,99815.73
2022-11-04T03:29:39.280Z,99809.42
2022-11-04T03:30:45.168Z,99805.20
2022-11-04T03:32:03.427Z,99806.74
2022-11-04T03:33:30.341Z,99808.28
2022-11-04T03:34:32.773Z,99810.48
2022-11-04T03:35:34.680Z,99809.98
2022-11-04T03:36:36.883Z,99806.42
2022-11-04T03:37:38.869Z,99807.22
2022-11-04T03:38:40.951Z,99803.00
2022-11-04T03:39:42.952Z,99809.40
2022-11-04T03:40:46.300Z,99812.18
2022-11-04T03:41:51.866Z,99809.13
2022-11-04T03:42:57.336Z,99814.19
2022-11-04T03:43:59.470Z,99816.20
2022-11-04T03:45:02.696Z,99817.80
2022-11-04T03:46:05.074Z,99818.42
2022-11-04T03:47:08.049Z,99819.44
2022-11-04T03:48:10.908Z,99815.80
2022-11-04T03:49:14.537Z,99818.57
2022-11-04T03:50:29.243Z,99812.27
2022-11-04T03:51:31.105Z,99812.18
2022-11-04T03:52:33.710Z,99815.58
2022-11-04T03:53:35.831Z,99813.88
2022-11-04T03:54:38.509Z,99814.83
2022-11-04T03:55:46.912Z,99816.56
2022-11-04T03:57:08.615Z,99824.69
2022-11-04T03:58:29.623Z,99814.25
2022-11-04T04:01:29.673Z,99823.29
2022-11-04T04:02:35.936Z,99827.06
2022-11-04T04:03:44.318Z,99820.33
2022-11-04T04:05:01.853Z,99810.05
2022-11-04T04:06:08.919Z,99815.98
2022-11-04T04:07:14.415Z,99817.80
2022-11-04T04:08:48.977Z,99808.17
2022-11-04T04:09:57.252Z,99803.66
2022-11-04T04:11:18.291Z,99804.27
2022-11-04T04:12:23.888Z,99809.65
2022-11-04T04:13:35.430Z,99809.80
2022-11-04T04:14:44.153Z,99817.89
2022-11-04T04:15:58.596Z,99812.62
2022-11-04T04:17:04.242Z,99818.02
2022-11-04T04:18:10.145Z,99810.24
2022-11-04T04:19:18.935Z,99814.50
2022-11-04T04:20:24.495Z,99819.59
2022-11-04T04:21:39.086Z,99815.30
2022-11-04T04:22:51.138Z,99811.88
2022-11-04T04:23:56.372Z,99817.80
2022-11-04T04:25:01.784Z,99817.21
2022-11-04T04:26:07.678Z,99811.02
2022-11-04T04:27:13.213Z,99811.88
2022-11-04T04:28:18.947Z,99808.55
2022-11-04T04:29:22.901Z,99817.42
2022-11-04T04:30:25.342Z,99814.30
2022-11-04T04:31:29.981Z,99808.17
2022-11-04T04:32:44.531Z,99821.81
2022-11-04T04:33:46.686Z,99814.03
2022-11-04T04:34:48.544Z,99812.98
2022-11-04T04:35:56.837Z,99824.78
2022-11-04T04:37:08.428Z,99824.78
2022-11-04T04:38:25.962Z,99819.90
2022-11-04T04:39:43.670Z,99815.23
2022-11-04T04:40:49.335Z,99819.50
2022-11-04T04:41:53.775Z,99817.80
2022-11-04T04:42:55.715Z,99821.29
2022-11-04T04:43:58.332Z,99828.05
2022-11-04T04:45:03.587Z,99822.77
2022-11-04T06:51:30.535Z,99897.56
2022-11-04T06:52:32.401Z,99890.22
2022-11-04T06:53:34.232Z,99886.11
2022-11-04T06:54:35.929Z,99892.06
2022-11-04T06:55:38.096Z,99889.30
2022-11-04T06:56:40.405Z,99897.97
2022-11-04T06:57:42.170Z,99891.17
2022-11-04T06:58:49.412Z,99889.24
2022-11-04T06:59:51.219Z,99891.72
2022-11-04T07:00:53.142Z,99886.86
2022-11-04T07:01:56.256Z,99883.60
2022-11-04T07:02:59.250Z,99883.60
2022-11-04T07:04:02.922Z,99888.34
2022-11-04T07:05:05.521Z,99889.88
2022-11-04T07:06:09.665Z,99888.98
2022-11-04T07:07:11.608Z,99889.19
2022-11-04T07:08:14.075Z,99892.52
2022-11-04T07:09:17.025Z,99889.03
2022-11-04T07:10:20.039Z,99889.52
2022-11-04T07:11:23.589Z,99883.14
2022-11-04T07:12:25.945Z,99883.75
2022-11-04T07:13:28.169Z,99883.70
2022-11-04T07:14:30.006Z,99877.40
2022-11-04T07:15:32.046Z,99878.30
2022-11-04T07:16:34.053Z,99877.40
2022-11-04T07:17:36.001Z,99884.06
2022-11-04T07:18:38.422Z,99879.99
2022-11-04T07:19:40.221Z,99878.38
2022-11-04T07:20:42.998Z,99877.48
2022-11-04T07:21:45.161Z,99874.06
2022-11-04T07:22:47.079Z,99881.10
2022-11-04T07:23:48.837Z,99878.38
2022-11-04T07:24:50.692Z,99871.87
2022-11-04T07:25:52.440Z,99878.14
2022-11-04T07:26:54.899Z,99877.18
2022-11-04T07:28:01.064Z,99877.18
2022-11-04T07:29:01.020Z,99877.86
2022-11-04T07:30:04.255Z,99873.69
2022-11-04T07:31:07.966Z,99874.68
2022-11-04T07:32:10.045Z,99876.00
2022-11-04T07:33:11.999Z,99874.52
2022-11-04T07:34:14.482Z,99883.39
2022-11-04T07:35:16.729Z,99879.31
2022-11-04T07:36:19.802Z,99876.09
2022-11-04T07:37:21.549Z,99874.22
2022-11-04T07:38:24.159Z,99874.87
2022-11-04T07:39:25.999Z,99881.63
2022-11-04T07:40:27.737Z,99874.52
2022-11-04T07:41:29.515Z,99876.22
2022-11-04T07:42:31.801Z,99877.05
2022-11-04T07:43:35.610Z,99874.08
2022-11-04T07:44:38.651Z,99865.69
2022-11-04T07:45:40.722Z,99869.85
2022-11-04T07:46:43.067Z,99873.98
2022-11-04T07:47:45.175Z,99878.66
2022-11-04T07:48:47.723Z,99876.86
2022-11-04T07:49:49.564Z,99870.81
2022-11-04T07:50:57.541Z,99878.75
2022-11-04T07:51:59.656Z,99870.61
2022-11-04T07:53:01.593Z,99866.72
2022-11-04T07:54:03.968Z,99877.80
2022-11-04T07:55:06.721Z,99875.02
2022-11-04T07:56:11.759Z,99879.65
2022-11-04T07:57:13.688Z,99870.81
2022-11-04T07:58:16.082Z,99883.84
2022-11-04T07:59:17.932Z,99887.33
2022-11-04T08:00:20.047Z,99887.65
2022-11-04T08:01:24.030Z,99887.86
2022-11-04T08:02:31.095Z,99882.03
2022-11-04T08:03:30.413Z,99876.81
2022-11-04T08:04:33.855Z,99882.80
2022-11-04T08:05:35.817Z,99882.67
2022-11-04T08:06:37.640Z,99881.41
2022-11-04T08:07:40.609Z,99885.64
2022-11-04T08:08:43.573Z,99880.45
2022-11-04T08:09:47.205Z,99876.86
2022-11-04T08:10:54.885Z,99876.64
2022-11-04T08:11:56.738Z,99879.11
2022-11-04T08:12:58.674Z,99875.91
2022-11-04T08:14:03.482Z,99877.60
2022-11-04T08:15:08.012Z,99879.39
2022-11-04T08:16:13.666Z,99878.44
2022-11-04T08:17:16.310Z,99876.64
2022-11-04T08:18:19.117Z,99876.52
2022-11-04T08:19:21.023Z,99876.64
2022-11-04T08:20:22.803Z,99872.80
2022-11-04T08:21:24.676Z,99882.62
2022-11-04T08:22:30.270Z,99873.14
2022-11-04T08:23:32.251Z,99878.73
2022-11-04T08:24:34.405Z,99877.11
2022-11-04T08:25:36.145Z,99872.02
2022-11-04T08:26:38.432Z,99878.17
2022-11-04T08:27:40.751Z,99887.59
2022-11-04T08:28:42.752Z,99876.53
2022-11-04T08:29:44.560Z,99880.20
2022-11-04T08:30:55.897Z,99875.97
2022-11-04T08:31:57.802Z,99878.10
2022-11-04T08:33:01.805Z,99888.09
2022-11-04T08:34:04.781Z,99882.06
2022-11-04T08:35:07.468Z,99882.97
2022-11-04T08:36:17.712Z,99886.36
2022-11-04T08:37:23.524Z,99886.79
2022-11-04T08:38:25.365Z,99882.88
2022-11-04T08:39:27.130Z,99888.02
2022-11-04T08:40:29.072Z,99883.72
2022-11-04T08:41:33.424Z,99880.64
2022-11-04T08:42:36.676Z,99885.09
2022-11-04T08:43:39.032Z,99885.09
2022-11-04T08:44:41.991Z,99881.20
2022-11-04T08:45:45.889Z,99881.50
2022-11-04T08:46:48.901Z,99884.09
2022-11-04T08:47:50.824Z,99882.06
2022-11-04T08:48:52.709Z,99878.44
2022-11-04T08:49:54.665Z,99883.19
2022-11-04T08:50:57.710Z,99881.98
2022-11-04T08:51:59.749Z,99876.06
2022-11-04T08:53:03.930Z,99887.25
2022-11-04T08:54:07.026Z,99881.06
2022-11-04T08:55:10.181Z,99885.22
2022-11-04T08:56:19.330Z,99887.59
2022-11-04T08:57:21.300Z,99886.13
2022-11-04T08:58:23.801Z,99882.95
2022-11-04T08:59:25.502Z,99877.89
2022-11-04T09:00:27.845Z,99882.95
2022-11-04T09:01:35.882Z,99880.26
2022-11-04T09:02:37.529Z,99875.64
2022-11-04T09:03:40.727Z,99880.83
2022-11-04T09:04:42.625Z,99878.10
2022-11-04T09:05:44.462Z,99877.77
2022-11-04T09:06:47.902Z,99883.19
2022-11-04T09:07:50.211Z,99885.89
2022-11-04T09:08:53.851Z,99885.66
2022-11-04T09:09:55.648Z,99881.43
2022-11-04T09:10:58.693Z,99877.04
2022-11-04T09:12:00.641Z,99881.37
2022-11-04T09:13:03.605Z,99877.61
2022-11-04T09:14:06.114Z,99877.61
2022-11-04T09:15:09.365Z,99869.52
2022-11-04T09:16:14.197Z,99878.83
2022-11-04T09:17:16.281Z,99877.27
2022-11-04T09:18:18.825Z,99876.72
2022-11-04T09:19:20.909Z,99876.72
2022-11-04T09:20:23.835Z,99872.77
2022-11-04T09:21:26.798Z,99878.52
2022-11-04T09:22:28.673Z,99869.77
2022-11-04T09:23:32.149Z,99875.82
2022-11-04T09:24:35.163Z,99870.48
2022-11-04T09:25:37.337Z,99867.79
2022-11-04T09:26:39.267Z,99870.00
2022-11-04T09:27:41.038Z,99867.09
2022-11-04T09:28:43.053Z,99868.80
2022-11-04T09:29:45.086Z,99866.64
2022-11-04T09:30:50.552Z,99866.16
2022-11-04T09:31:53.057Z,99872.00
2022-11-04T09:32:54.920Z,99861.06
2022-11-04T09:33:57.070Z,99872.55
2022-11-04T09:34:59.002Z,99870.98
2022-11-04T09:36:00.833Z,99870.81
2022-11-04T09:37:02.802Z,99873.13
2022-11-04T09:38:05.280Z,99872.87
2022-11-04T09:39:07.104Z,99871.86
2022-11-04T09:41:35.318Z,99866.89
2022-11-04T09:42:43.666Z,99865.95
2022-11-04T09:43:50.311Z,99872.89
2022-11-04T09:46:13.285Z,99865.14
2022-11-04T09:47:21.644Z,99865.14
2022-11-04T09:48:25.323Z,99873.59
2022-11-04T09:49:30.882Z,99869.98
2022-11-04T09:50:36.500Z,99873.84
2022-11-04T09:51:53.818Z,99869.16
2022-11-04T09:52:48.661Z,99874.05
2022-11-04T09:53:54.182Z,99867.09
2022-11-04T09:55:17.732Z,99878.07
2022-11-04T09:56:22.566Z,99873.84
2022-11-04T09:57:25.336Z,99873.84
2022-11-04T09:58:30.687Z,99866.19
2022-11-04T09:59:33.946Z,99867.09
2022-11-04T10:00:39.323Z,99868.06
2022-11-04T10:01:55.446Z,99867.20
2022-11-04T10:03:04.196Z,99864.17
2022-11-04T10:04:25.804Z,99873.48
2022-11-04T10:05:34.543Z,99866.86
2022-11-04T10:07:03.084Z,99866.06
2022-11-04T10:08:38.054Z,99874.70
2022-11-04T10:10:03.787Z,99865.03
2022-11-04T10:11:12.126Z,99866.16
2022-11-04T10:12:23.503Z,99865.36
2022-11-04T10:13:31.830Z,99866.84
2022-11-04T10:14:47.375Z,99866.91
2022-11-04T10:16:14.454Z,99861.78
2022-11-04T10:19:06.179Z,99856.13
2022-11-04T10:20:28.646Z,99862.00
2022-11-04T10:21:40.600Z,99857.92
2022-11-04T10:22:58.165Z,99865.53
2022-11-04T10:25:16.090Z,99854.31
2022-11-04T10:26:24.383Z,99854.46
2022-11-04T10:27:35.446Z,99862.19
2022-11-04T10:28:43.662Z,99865.42
2022-11-04T10:29:55.688Z,99858.53
2022-11-04T10:30:59.323Z,99857.38
2022-11-04T10:32:04.663Z,99861.92
2022-11-04T10:33:13.150Z,99863.88
2022-11-04T10:34:18.998Z,99853.59
2022-11-04T10:35:31.570Z,99854.50
2022-11-04T10:36:35.675Z,99856.15
2022-11-04T10:37:37.624Z,99861.31
2022-11-04T10:38:46.972Z,99858.80
2022-11-04T10:39:49.047Z,99858.80
2022-11-04T10:40:54.056Z,99854.92
2022-11-04T10:41:57.166Z,99862.29
2022-11-04T10:43:03.087Z,99860.23
2022-11-04T14:37:55.903Z,99829.70
2022-11-04T14:39:13.548Z,99832.52
2022-11-04T14:40:29.177Z,99827.39
2022-11-04T14:41:41.450Z,99830.69
2022-11-04T14:42:50.579Z,99827.31
2022-11-04T14:43:58.879Z,99831.22
2022-11-04T14:45:01.376Z,99824.47
2022-11-04T14:46:03.722Z,99834.78
2022-11-04T14:47:22.088Z,99831.06
2022-11-04T14:48:24.472Z,99837.84
2022-11-04T14:49:29.978Z,99835.91
2022-11-04T14:50:32.245Z,99828.92
2022-11-04T14:51:39.731Z,99828.63
2022-11-04T14:52:45.796Z,99828.52
2022-11-04T14:53:48.681Z,99825.80
2022-11-04T14:55:03.323Z,99828.52
2022-11-04T14:56:23.506Z,99821.74
2022-11-04T14:57:24.020Z,99826.03
2022-11-04T14:58:27.608Z,99827.48
2022-11-04T14:59:29.583Z,99830.88
2022-11-04T15:00:38.848Z,99831.36
2022-11-04T15:01:42.361Z,99825.67
2022-11-04T15:02:45.604Z,99826.90
2022-11-04T15:05:02.091Z,99827.73
2022-11-04T15:06:06.696Z,99828.22
2022-11-04T15:07:12.427Z,99835.20
2022-11-04T15:08:41.570Z,99827.89
2022-11-04T15:09:49.241Z,99834.84
2022-11-04T15:10:53.424Z,99835.28
2022-11-04T15:12:14.535Z,99835.67
2022-11-04T15:13:19.862Z,99832.31
2022-11-04T15:14:24.530Z,99825.98
2022-11-04T15:15:39.319Z,99828.19
2022-11-04T15:16:44.140Z,99834.11
2022-11-04T15:17:47.240Z,99831.55
2022-11-04T15:18:51.993Z,99837.70
2022-11-04T15:19:56.838Z,99836.00
2022-11-04T15:21:02.187Z,99829.12
2022-11-04T15:22:06.222Z,99838.75
2022-11-04T15:23:12.663Z,99838.11
2022-11-04T15:24:17.308Z,99836.62
2022-11-04T15:25:19.525Z,99831.44
2022-11-04T15:26:30.151Z,99833.08
2022-11-04T15:27:32.435Z,99842.70
2022-11-04T15:28:38.001Z,99835.08
2022-11-04T15:29:40.092Z,99835.98
2022-11-04T15:30:41.916Z,99838.69
2022-11-04T15:31:57.011Z,99832.11
2022-11-04T15:33:01.935Z,99837.05
2022-11-04T15:34:09.196Z,99837.89
2022-11-04T15:35:12.756Z,99830.17
2022-11-04T15:36:26.075Z,99831.88
2022-11-04T15:37:32.626Z,99831.88
2022-11-04T15:38:37.726Z,99838.53
2022-11-04T15:39:43.892Z,99834.19
2022-11-04T15:40:46.788Z,99835.73
2022-11-04T15:43:05.026Z,99835.58
2022-11-04T15:44:19.529Z,99833.45
2022-11-04T15:45:41.293Z,99834.46
2022-11-04T15:46:52.119Z,99838.63
2022-11-04T15:48:24.399Z,99842.12
2022-11-04T15:49:30.750Z,99843.66
2022-11-04T15:50:33.907Z,99839.95
2022-11-04T15:51:42.700Z,99841.91
2022-11-04T15:52:51.881Z,99843.51
2022-11-04T15:54:03.493Z,99845.23
2022-11-04T15:55:08.585Z,99845.42
2022-11-04T15:56:17.857Z,99843.01
2022-11-04T15:57:27.572Z,99845.59
2022-11-04T15:58:30.532Z,99847.83
2022-11-04T15:59:36.075Z,99845.20
2022-11-04T16:00:39.851Z,99840.23
2022-11-04T16:01:48.935Z,99844.19
2022-11-04T16:02:54.393Z,99848.35
2022-11-04T16:03:59.471Z,99832.39
2022-11-04T16:05:13.292Z,99840.54
2022-11-04T16:06:15.369Z,99837.20
2022-11-04T16:07:22.601Z,99852.91
2022-11-04T16:08:28.363Z,99839.52
2022-11-04T16:09:30.269Z,99845.20
2022-11-04T16:10:35.167Z,99841.44
2022-11-04T16:11:37.780Z,99849.50
2022-11-04T16:12:44.153Z,99843.64
2022-11-04T16:13:46.334Z,99842.75
2022-11-04T16:14:53.370Z,99843.99
2022-11-04T16:16:02.162Z,99843.16
2022-11-04T16:17:07.283Z,99844.86
2022-11-04T16:18:24.945Z,99845.15
2022-11-04T16:19:29.629Z,99839.42
2022-11-04T16:20:33.278Z,99840.26
2022-11-04T16:21:36.615Z,99852.43
2022-11-04T16:22:39.937Z,99843.85
2022-11-04T16:23:49.252Z,99849.92
2022-11-04T16:24:53.498Z,99850.81
2022-11-04T16:25:58.982Z,99855.99
2022-11-04T16:27:01.031Z,99850.93
2022-11-04T16:28:03.223Z,99857.28
2022-11-04T16:29:08.865Z,99851.41
2022-11-04T16:30:20.408Z,99854.88
2022-11-04T16:31:26.866Z,99846.42
2022-11-04T16:32:34.591Z,99849.89
2022-11-04T16:33:38.150Z,99851.48
2022-11-04T16:34:40.448Z,99854.19
2022-11-04T16:35:42.295Z,99848.33
2022-11-04T16:36:44.301Z,99849.28
2022-11-04T16:37:46.655Z,99850.98
2022-11-04T16:38:54.662Z,99843.21
2022-11-04T16:39:58.324Z,99841.24
2022-11-04T16:41:00.873Z,99848.95
2022-11-04T16:42:04.676Z,99848.39
2022-11-04T16:43:10.480Z,99846.42
2022-11-04T16:44:22.213Z,99844.53
2022-11-04T16:45:28.082Z,99842.75
2022-11-04T16:46:33.641Z,99844.78
2022-11-04T16:47:39.099Z,99844.98
2022-11-04T16:48:41.638Z,99844.98
2022-11-04T16:49:44.592Z,99848.39
2022-11-04T16:50:47.280Z,99841.52
2022-11-04T16:51:55.006Z,99846.74
2022-11-04T16:52:58.522Z,99845.72
2022-11-04T16:54:01.231Z,99844.53
2022-11-04T16:55:04.282Z,99840.97
2022-11-04T16:56:08.731Z,99840.30
2022-11-04T16:57:13.084Z,99841.13
2022-11-04T16:58:18.225Z,99844.33
2022-11-04T16:59:20.959Z,99843.36
2022-11-04T17:00:26.335Z,99848.67
2022-11-04T17:01:29.025Z,99848.56
2022-11-04T17:02:34.405Z,99847.33
2022-11-04T17:03:36.506Z,99853.93
2022-11-04T17:04:38.266Z,99855.99
2022-11-04T17:05:40.204Z,99859.39
2022-11-04T17:06:43.178Z,99860.34
2022-11-04T17:07:55.537Z,99855.16
2022-11-04T17:08:49.365Z,99862.43
2022-11-04T17:09:51.131Z,99858.89
2022-11-04T17:10:53.307Z,99856.33
2022-11-04T17:11:55.841Z,99852.83
2022-11-04T17:12:59.411Z,99854.41
2022-11-04T17:14:01.930Z,99850.93
2022-11-04T17:15:05.668Z,99855.36
2022-11-04T17:16:16.276Z,99858.50
2022-11-04T17:17:18.631Z,99857.89
2022-11-04T17:18:20.343Z,99857.89
2022-11-04T17:19:22.573Z,99856.50
2022-11-04T17:20:25.086Z,99846.61
2022-11-04T17:21:27.656Z,99852.54
2022-11-04T17:22:32.225Z,99849.09
2022-11-04T17:23:34.859Z,99849.06
2022-11-04T17:24:37.159Z,99843.72
2022-11-04T17:25:39.866Z,99847.25
2022-11-04T17:26:41.636Z,99844.78
2022-11-04T17:27:52.011Z,99843.13
2022-11-04T17:28:54.897Z,99841.24
2022-11-04T17:29:56.776Z,99851.13
2022-11-04T17:30:59.900Z,99849.92
2022-11-04T17:32:01.885Z,99845.64
2022-11-04T17:33:04.353Z,99848.95
2022-11-04T17:34:07.154Z,99852.52
2022-11-04T17:35:12.110Z,99849.29
2022-11-04T17:36:18.626Z,99855.91
2022-11-04T17:37:20.827Z,99854.82
2022-11-04T17:38:23.966Z,99850.33
2022-11-04T17:39:27.330Z,99851.83
2022-11-04T17:40:29.493Z,99848.63
2022-11-04T17:41:32.421Z,99855.51
2022-11-04T17:42:34.201Z,99859.39
2022-11-04T17:43:36.738Z,99857.05
2022-11-04T17:44:38.696Z,99865.16
2022-11-04T17:45:42.921Z,99857.89
2022-11-04T17:46:44.989Z,99851.56
2022-11-04T17:47:46.886Z,99850.18
2022-11-04T17:48:48.938Z,99850.18
2022-11-04T17:49:51.998Z,99858.84
2022-11-04T17:50:54.317Z,99859.84
2022-11-04T17:51:57.742Z,99863.27
2022-11-04T17:53:00.591Z,99861.38
2022-11-04T17:54:03.230Z,99866.27
2022-11-04T17:55:05.765Z,99861.09
2022-11-04T17:56:20.418Z,99857.25
2022-11-04T17:57:22.838Z,99859.09
2022-11-04T17:58:25.326Z,99851.65
2022-11-04T21:00:58.291Z,99933.09
2022-11-04T21:02:00.604Z,99933.32
2022-11-04T21:03:02.656Z,99935.80
2022-11-04T21:04:07.574Z,99933.05
2022-11-04T21:05:09.435Z,99931.16
2022-11-04T21:06:13.828Z,99931.70
2022-11-04T21:07:17.333Z,99927.00
2022-11-04T21:08:19.603Z,99925.71
2022-11-04T21:09:21.753Z,99920.05
2022-11-04T21:10:24.962Z,99918.80
2022-11-04T21:11:31.931Z,99920.14
2022-11-04T21:12:32.233Z,99923.19
2022-11-04T21:13:35.402Z,99923.75
2022-11-04T21:14:37.518Z,99920.77
2022-11-04T21:15:39.581Z,99915.44
2022-11-04T21:16:48.683Z,99925.47
2022-11-04T21:17:56.511Z,99924.31
2022-11-04T21:19:08.586Z,99925.59
2022-11-04T21:20:35.973Z,99927.44
2022-11-04T21:22:12.843Z,99919.58
2022-11-04T21:26:43.409Z,99928.78
2022-11-04T21:27:45.531Z,99932.39
2022-11-04T21:28:48.405Z,99924.28
2022-11-04T21:29:50.177Z,99927.25
2022-11-04T21:30:53.639Z,99934.05
2022-11-04T21:31:55.565Z,99925.26
2022-11-04T21:32:57.295Z,99933.55
2022-11-04T21:33:59.750Z,99931.53
2022-11-04T21:35:01.454Z,99929.66
2022-11-04T21:36:09.530Z,99928.58
2022-11-04T21:37:11.993Z,99934.54
2022-11-04T21:38:15.882Z,99921.36
2022-11-04T21:39:18.201Z,99922.08
2022-11-04T21:40:21.364Z,99920.16
2022-11-04T21:41:25.286Z,99930.41
2022-11-04T21:42:29.724Z,99920.77
2022-11-04T21:43:31.691Z,99919.72
2022-11-04T21:44:33.923Z,99919.72
2022-11-04T21:45:35.931Z,99916.17
2022-11-04T21:46:38.234Z,99921.20
2022-11-04T21:47:39.993Z,99922.00
2022-11-04T21:48:42.466Z,99922.89
2022-11-04T21:49:45.452Z,99919.41
2022-11-04T21:50:47.465Z,99928.18
2022-11-04T21:51:49.915Z,99923.21
2022-11-04T21:52:51.843Z,99927.50
2022-11-04T21:53:55.084Z,99919.78
2022-11-04T21:54:57.468Z,99918.15
2022-11-04T21:56:21.374Z,99919.94
2022-11-04T21:57:23.225Z,99920.03
2022-11-04T21:58:25.876Z,99919.20
2022-11-04T21:59:28.160Z,99913.27
2022-11-04T22:00:29.970Z,99915.06
2022-11-04T22:01:33.580Z,99915.19
2022-11-04T22:02:38.800Z,99917.81
2022-11-04T22:03:42.235Z,99917.09
2022-11-04T22:04:44.077Z,99915.41
2022-11-04T22:05:47.607Z,99910.78
2022-11-04T22:06:49.593Z,99919.67